sensor_id;sensor_type;location;lat;lon;timestamp;P1;durP1;ratioP1;P2;durP2;ratioP2
7487;SDS011;3785;52.260;4.728;2023-05-14T00:01:59;13.98;;;8.05;;
7487;SDS011;3785;52.260;4.728;2023-05-14T00:05:20;12.98;;;7.88;;
7487;SDS011;3785;52.260;4.728;2023-05-14T00:08:41;10.75;;;7.63;;
7487;SDS011;3785;52.260;4.728;2023-05-14T00:12:02;10.75;;;7.53;;
7487;SDS011;3785;52.260;4.728;2023-05-14T00:15:22;11.50;;;6.90;;
7487;SDS011;3785;52.260;4.728;2023-05-14T00:18:43;10.48;;;7.93;;
7487;SDS011;3785;52.260;4.728;2023-05-14T00:22:03;11.85;;;7.78;;
7487;SDS011;3785;52.260;4.728;2023-05-14T00:25:24;12.18;;;7.75;;
7487;SDS011;3785;52.260;4.728;2023-05-14T00:28:45;12.02;;;7.75;;
7487;SDS011;3785;52.260;4.728;2023-05-14T00:32:06;11.48;;;7.70;;
7487;SDS011;3785;52.260;4.728;2023-05-14T00:35:26;13.02;;;6.88;;
7487;SDS011;3785;52.260;4.728;2023-05-14T00:38:47;12.43;;;7.63;;
7487;SDS011;3785;52.260;4.728;2023-05-14T00:42:08;13.15;;;7.82;;
7487;SDS011;3785;52.260;4.728;2023-05-14T00:45:28;10.98;;;7.63;;
7487;SDS011;3785;52.260;4.728;2023-05-14T00:48:49;12.18;;;7.88;;
7487;SDS011;3785;52.260;4.728;2023-05-14T00:52:10;15.77;;;8.10;;
7487;SDS011;3785;52.260;4.728;2023-05-14T00:55:30;12.35;;;8.02;;
7487;SDS011;3785;52.260;4.728;2023-05-14T00:58:51;16.75;;;8.10;;
7487;SDS011;3785;52.260;4.728;2023-05-14T01:02:12;14.23;;;8.27;;
7487;SDS011;3785;52.260;4.728;2023-05-14T01:09:25;13.25;;;7.55;;
7487;SDS011;3785;52.260;4.728;2023-05-14T01:13:14;12.13;;;7.38;;
7487;SDS011;3785;52.260;4.728;2023-05-14T01:16:33;12.63;;;7.93;;
7487;SDS011;3785;52.260;4.728;2023-05-14T01:19:56;14.65;;;7.45;;
7487;SDS011;3785;52.260;4.728;2023-05-14T01:23:17;12.02;;;7.68;;
7487;SDS011;3785;52.260;4.728;2023-05-14T01:26:37;13.70;;;8.10;;
7487;SDS011;3785;52.260;4.728;2023-05-14T01:30:02;12.00;;;6.60;;
7487;SDS011;3785;52.260;4.728;2023-05-14T01:33:31;15.35;;;7.90;;
7487;SDS011;3785;52.260;4.728;2023-05-14T01:36:53;13.35;;;7.65;;
7487;SDS011;3785;52.260;4.728;2023-05-14T01:40:15;9.55;;;6.68;;
7487;SDS011;3785;52.260;4.728;2023-05-14T01:43:35;11.70;;;7.95;;
7487;SDS011;3785;52.260;4.728;2023-05-14T01:46:56;13.75;;;8.63;;
7487;SDS011;3785;52.260;4.728;2023-05-14T01:50:17;12.88;;;8.00;;
7487;SDS011;3785;52.260;4.728;2023-05-14T01:53:38;14.55;;;8.45;;
7487;SDS011;3785;52.260;4.728;2023-05-14T01:56:58;11.80;;;7.65;;
7487;SDS011;3785;52.260;4.728;2023-05-14T02:00:19;12.18;;;7.78;;
7487;SDS011;3785;52.260;4.728;2023-05-14T02:03:41;12.20;;;7.70;;
7487;SDS011;3785;52.260;4.728;2023-05-14T02:07:01;13.52;;;8.15;;
7487;SDS011;3785;52.260;4.728;2023-05-14T02:10:22;11.80;;;7.80;;
7487;SDS011;3785;52.260;4.728;2023-05-14T02:13:42;14.02;;;8.52;;
7487;SDS011;3785;52.260;4.728;2023-05-14T02:17:03;13.27;;;8.40;;
7487;SDS011;3785;52.260;4.728;2023-05-14T02:20:23;12.98;;;8.00;;
7487;SDS011;3785;52.260;4.728;2023-05-14T02:23:44;11.90;;;7.60;;
7487;SDS011;3785;52.260;4.728;2023-05-14T02:27:04;11.73;;;7.65;;
7487;SDS011;3785;52.260;4.728;2023-05-14T02:30:25;11.27;;;7.70;;
7487;SDS011;3785;52.260;4.728;2023-05-14T02:33:46;14.20;;;8.00;;
7487;SDS011;3785;52.260;4.728;2023-05-14T02:37:06;13.02;;;7.55;;
7487;SDS011;3785;52.260;4.728;2023-05-14T02:40:27;11.93;;;6.53;;
7487;SDS011;3785;52.260;4.728;2023-05-14T02:43:47;11.40;;;7.07;;
7487;SDS011;3785;52.260;4.728;2023-05-14T02:47:08;10.02;;;6.95;;
7487;SDS011;3785;52.260;4.728;2023-05-14T02:50:29;10.98;;;7.10;;
7487;SDS011;3785;52.260;4.728;2023-05-14T02:53:49;9.13;;;6.10;;
7487;SDS011;3785;52.260;4.728;2023-05-14T02:57:10;10.50;;;6.47;;
7487;SDS011;3785;52.260;4.728;2023-05-14T03:00:30;9.85;;;6.35;;
7487;SDS011;3785;52.260;4.728;2023-05-14T03:03:51;10.20;;;6.80;;
7487;SDS011;3785;52.260;4.728;2023-05-14T03:07:11;10.85;;;6.65;;
7487;SDS011;3785;52.260;4.728;2023-05-14T03:10:32;10.52;;;6.93;;
7487;SDS011;3785;52.260;4.728;2023-05-14T03:13:53;9.15;;;6.15;;
7487;SDS011;3785;52.260;4.728;2023-05-14T03:17:13;11.45;;;7.82;;
7487;SDS011;3785;52.260;4.728;2023-05-14T03:20:34;11.32;;;7.45;;
7487;SDS011;3785;52.260;4.728;2023-05-14T03:23:54;12.73;;;7.68;;
7487;SDS011;3785;52.260;4.728;2023-05-14T03:27:15;13.30;;;8.00;;
7487;SDS011;3785;52.260;4.728;2023-05-14T03:30:36;12.68;;;7.90;;
7487;SDS011;3785;52.260;4.728;2023-05-14T03:33:56;15.27;;;8.25;;
7487;SDS011;3785;52.260;4.728;2023-05-14T03:37:17;12.65;;;7.88;;
7487;SDS011;3785;52.260;4.728;2023-05-14T03:40:37;11.43;;;8.25;;
7487;SDS011;3785;52.260;4.728;2023-05-14T03:43:58;12.52;;;8.30;;
7487;SDS011;3785;52.260;4.728;2023-05-14T03:47:18;10.00;;;7.65;;
7487;SDS011;3785;52.260;4.728;2023-05-14T03:50:39;11.95;;;7.45;;
7487;SDS011;3785;52.260;4.728;2023-05-14T03:54:00;12.23;;;7.97;;
7487;SDS011;3785;52.260;4.728;2023-05-14T03:57:21;13.35;;;7.60;;
7487;SDS011;3785;52.260;4.728;2023-05-14T04:00:42;12.18;;;7.38;;
7487;SDS011;3785;52.260;4.728;2023-05-14T04:04:02;13.77;;;8.20;;
7487;SDS011;3785;52.260;4.728;2023-05-14T04:07:23;17.20;;;8.02;;
7487;SDS011;3785;52.260;4.728;2023-05-14T04:10:44;14.60;;;8.02;;
7487;SDS011;3785;52.260;4.728;2023-05-14T04:14:04;14.25;;;8.60;;
7487;SDS011;3785;52.260;4.728;2023-05-14T04:17:25;13.43;;;8.52;;
7487;SDS011;3785;52.260;4.728;2023-05-14T04:20:46;16.48;;;9.30;;
7487;SDS011;3785;52.260;4.728;2023-05-14T04:24:06;14.05;;;8.93;;
7487;SDS011;3785;52.260;4.728;2023-05-14T04:27:27;14.32;;;9.02;;
7487;SDS011;3785;52.260;4.728;2023-05-14T04:30:48;14.02;;;8.55;;
7487;SDS011;3785;52.260;4.728;2023-05-14T04:34:08;13.48;;;8.98;;
7487;SDS011;3785;52.260;4.728;2023-05-14T04:37:29;16.25;;;9.23;;
7487;SDS011;3785;52.260;4.728;2023-05-14T04:40:50;16.83;;;9.70;;
7487;SDS011;3785;52.260;4.728;2023-05-14T04:44:11;15.68;;;8.95;;
7487;SDS011;3785;52.260;4.728;2023-05-14T04:47:32;15.02;;;9.57;;
7487;SDS011;3785;52.260;4.728;2023-05-14T04:50:52;14.65;;;9.13;;
7487;SDS011;3785;52.260;4.728;2023-05-14T04:54:13;15.70;;;9.32;;
7487;SDS011;3785;52.260;4.728;2023-05-14T04:57:33;17.50;;;9.88;;
7487;SDS011;3785;52.260;4.728;2023-05-14T05:00:54;14.48;;;9.35;;
7487;SDS011;3785;52.260;4.728;2023-05-14T05:04:14;17.20;;;9.63;;
7487;SDS011;3785;52.260;4.728;2023-05-14T05:07:35;14.77;;;9.40;;
7487;SDS011;3785;52.260;4.728;2023-05-14T05:10:55;18.77;;;9.60;;
7487;SDS011;3785;52.260;4.728;2023-05-14T05:14:16;15.23;;;10.10;;
7487;SDS011;3785;52.260;4.728;2023-05-14T05:17:37;17.42;;;10.50;;
7487;SDS011;3785;52.260;4.728;2023-05-14T05:20:58;19.02;;;9.65;;
7487;SDS011;3785;52.260;4.728;2023-05-14T05:24:18;17.33;;;10.15;;
7487;SDS011;3785;52.260;4.728;2023-05-14T05:27:39;19.83;;;10.80;;
7487;SDS011;3785;52.260;4.728;2023-05-14T05:31:00;17.27;;;10.75;;
7487;SDS011;3785;52.260;4.728;2023-05-14T05:34:20;20.05;;;11.00;;
7487;SDS011;3785;52.260;4.728;2023-05-14T05:37:41;18.17;;;10.63;;
7487;SDS011;3785;52.260;4.728;2023-05-14T05:41:04;15.90;;;9.85;;
7487;SDS011;3785;52.260;4.728;2023-05-14T05:44:24;17.42;;;10.63;;
7487;SDS011;3785;52.260;4.728;2023-05-14T05:47:45;19.70;;;10.45;;
7487;SDS011;3785;52.260;4.728;2023-05-14T05:51:05;14.57;;;10.20;;
7487;SDS011;3785;52.260;4.728;2023-05-14T05:54:26;17.65;;;10.15;;
7487;SDS011;3785;52.260;4.728;2023-05-14T05:57:46;16.65;;;9.88;;
7487;SDS011;3785;52.260;4.728;2023-05-14T06:01:07;14.13;;;9.88;;
7487;SDS011;3785;52.260;4.728;2023-05-14T06:04:28;15.05;;;9.95;;
7487;SDS011;3785;52.260;4.728;2023-05-14T06:07:48;19.25;;;10.52;;
7487;SDS011;3785;52.260;4.728;2023-05-14T06:11:09;14.52;;;10.70;;
7487;SDS011;3785;52.260;4.728;2023-05-14T06:14:29;17.33;;;10.32;;
7487;SDS011;3785;52.260;4.728;2023-05-14T06:17:50;16.45;;;9.50;;
7487;SDS011;3785;52.260;4.728;2023-05-14T06:21:10;19.20;;;10.93;;
7487;SDS011;3785;52.260;4.728;2023-05-14T06:24:31;15.90;;;9.60;;
7487;SDS011;3785;52.260;4.728;2023-05-14T06:27:51;14.38;;;9.50;;
7487;SDS011;3785;52.260;4.728;2023-05-14T06:31:12;17.10;;;9.88;;
7487;SDS011;3785;52.260;4.728;2023-05-14T06:34:33;17.83;;;9.55;;
7487;SDS011;3785;52.260;4.728;2023-05-14T06:37:53;14.20;;;8.65;;
7487;SDS011;3785;52.260;4.728;2023-05-14T06:41:14;12.73;;;8.75;;
7487;SDS011;3785;52.260;4.728;2023-05-14T06:44:35;13.75;;;8.68;;
7487;SDS011;3785;52.260;4.728;2023-05-14T06:47:55;15.13;;;8.35;;
7487;SDS011;3785;52.260;4.728;2023-05-14T06:51:16;10.52;;;7.72;;
7487;SDS011;3785;52.260;4.728;2023-05-14T06:54:37;12.85;;;8.43;;
7487;SDS011;3785;52.260;4.728;2023-05-14T06:57:58;13.75;;;9.05;;
7487;SDS011;3785;52.260;4.728;2023-05-14T07:01:18;10.82;;;7.72;;
7487;SDS011;3785;52.260;4.728;2023-05-14T07:04:39;11.35;;;7.72;;
7487;SDS011;3785;52.260;4.728;2023-05-14T07:07:59;15.15;;;8.75;;
7487;SDS011;3785;52.260;4.728;2023-05-14T07:11:20;11.40;;;7.85;;
7487;SDS011;3785;52.260;4.728;2023-05-14T07:14:41;13.82;;;8.05;;
7487;SDS011;3785;52.260;4.728;2023-05-14T07:18:01;12.80;;;7.45;;
7487;SDS011;3785;52.260;4.728;2023-05-14T07:21:22;12.88;;;7.47;;
7487;SDS011;3785;52.260;4.728;2023-05-14T07:24:42;11.75;;;6.93;;
7487;SDS011;3785;52.260;4.728;2023-05-14T07:28:03;9.80;;;7.05;;
7487;SDS011;3785;52.260;4.728;2023-05-14T07:31:24;10.13;;;6.30;;
7487;SDS011;3785;52.260;4.728;2023-05-14T07:34:44;9.63;;;5.82;;
7487;SDS011;3785;52.260;4.728;2023-05-14T07:38:05;12.68;;;7.05;;
7487;SDS011;3785;52.260;4.728;2023-05-14T07:41:26;12.00;;;7.93;;
7487;SDS011;3785;52.260;4.728;2023-05-14T07:44:46;12.35;;;6.85;;
7487;SDS011;3785;52.260;4.728;2023-05-14T07:48:07;8.38;;;6.80;;
7487;SDS011;3785;52.260;4.728;2023-05-14T07:51:27;9.45;;;7.00;;
7487;SDS011;3785;52.260;4.728;2023-05-14T07:54:49;9.77;;;6.65;;
7487;SDS011;3785;52.260;4.728;2023-05-14T07:58:10;12.40;;;7.35;;
7487;SDS011;3785;52.260;4.728;2023-05-14T08:01:31;10.95;;;7.60;;
7487;SDS011;3785;52.260;4.728;2023-05-14T08:04:51;12.20;;;7.50;;
7487;SDS011;3785;52.260;4.728;2023-05-14T08:08:12;15.57;;;8.50;;
7487;SDS011;3785;52.260;4.728;2023-05-14T08:11:33;11.95;;;7.28;;
7487;SDS011;3785;52.260;4.728;2023-05-14T08:14:53;11.27;;;7.22;;
7487;SDS011;3785;52.260;4.728;2023-05-14T08:18:14;12.65;;;7.70;;
7487;SDS011;3785;52.260;4.728;2023-05-14T08:21:34;8.73;;;6.90;;
7487;SDS011;3785;52.260;4.728;2023-05-14T08:24:55;13.82;;;8.05;;
7487;SDS011;3785;52.260;4.728;2023-05-14T08:28:15;10.68;;;7.05;;
7487;SDS011;3785;52.260;4.728;2023-05-14T08:31:36;9.77;;;7.22;;
7487;SDS011;3785;52.260;4.728;2023-05-14T08:34:57;10.93;;;7.28;;
7487;SDS011;3785;52.260;4.728;2023-05-14T08:38:17;11.20;;;7.20;;
7487;SDS011;3785;52.260;4.728;2023-05-14T08:41:38;13.25;;;7.57;;
7487;SDS011;3785;52.260;4.728;2023-05-14T08:45:00;11.23;;;7.15;;
7487;SDS011;3785;52.260;4.728;2023-05-14T08:48:21;8.43;;;6.40;;
7487;SDS011;3785;52.260;4.728;2023-05-14T08:51:45;8.95;;;5.93;;
7487;SDS011;3785;52.260;4.728;2023-05-14T08:55:07;10.93;;;6.55;;
7487;SDS011;3785;52.260;4.728;2023-05-14T08:58:28;8.35;;;6.25;;
7487;SDS011;3785;52.260;4.728;2023-05-14T09:01:50;8.30;;;6.38;;
7487;SDS011;3785;52.260;4.728;2023-05-14T09:05:12;9.20;;;6.20;;
7487;SDS011;3785;52.260;4.728;2023-05-14T09:08:33;9.10;;;5.65;;
7487;SDS011;3785;52.260;4.728;2023-05-14T09:11:55;9.18;;;5.97;;
7487;SDS011;3785;52.260;4.728;2023-05-14T09:15:16;10.57;;;6.03;;
7487;SDS011;3785;52.260;4.728;2023-05-14T09:18:36;8.57;;;5.47;;
7487;SDS011;3785;52.260;4.728;2023-05-14T09:21:57;9.45;;;5.22;;
7487;SDS011;3785;52.260;4.728;2023-05-14T09:25:18;8.25;;;5.53;;
7487;SDS011;3785;52.260;4.728;2023-05-14T09:28:39;8.25;;;4.45;;
7487;SDS011;3785;52.260;4.728;2023-05-14T09:32:03;9.20;;;5.25;;
7487;SDS011;3785;52.260;4.728;2023-05-14T09:35:25;7.70;;;5.10;;
7487;SDS011;3785;52.260;4.728;2023-05-14T09:38:46;6.38;;;5.00;;
7487;SDS011;3785;52.260;4.728;2023-05-14T09:42:06;7.32;;;4.60;;
7487;SDS011;3785;52.260;4.728;2023-05-14T09:45:27;9.45;;;4.53;;
7487;SDS011;3785;52.260;4.728;2023-05-14T09:48:48;5.45;;;4.28;;
7487;SDS011;3785;52.260;4.728;2023-05-14T09:52:09;5.78;;;4.15;;
7487;SDS011;3785;52.260;4.728;2023-05-14T09:55:31;7.30;;;4.15;;
7487;SDS011;3785;52.260;4.728;2023-05-14T09:58:51;6.60;;;3.75;;
7487;SDS011;3785;52.260;4.728;2023-05-14T10:02:15;7.32;;;3.70;;
7487;SDS011;3785;52.260;4.728;2023-05-14T10:05:41;5.95;;;4.15;;
7487;SDS011;3785;52.260;4.728;2023-05-14T10:09:03;6.82;;;4.20;;
7487;SDS011;3785;52.260;4.728;2023-05-14T10:12:24;7.22;;;3.90;;
7487;SDS011;3785;52.260;4.728;2023-05-14T10:15:55;7.18;;;3.63;;
7487;SDS011;3785;52.260;4.728;2023-05-14T10:19:19;7.20;;;3.53;;
7487;SDS011;3785;52.260;4.728;2023-05-14T10:22:42;5.72;;;3.83;;
7487;SDS011;3785;52.260;4.728;2023-05-14T10:26:02;4.90;;;3.67;;
7487;SDS011;3785;52.260;4.728;2023-05-14T10:29:30;7.15;;;4.18;;
7487;SDS011;3785;52.260;4.728;2023-05-14T10:33:07;4.93;;;3.50;;
7487;SDS011;3785;52.260;4.728;2023-05-14T10:36:30;5.03;;;2.90;;
7487;SDS011;3785;52.260;4.728;2023-05-14T10:43:13;6.45;;;3.33;;
7487;SDS011;3785;52.260;4.728;2023-05-14T10:46:35;7.35;;;2.83;;
7487;SDS011;3785;52.260;4.728;2023-05-14T10:50:00;6.30;;;4.00;;
7487;SDS011;3785;52.260;4.728;2023-05-14T10:53:33;6.90;;;3.33;;
7487;SDS011;3785;52.260;4.728;2023-05-14T10:56:57;3.63;;;2.90;;
7487;SDS011;3785;52.260;4.728;2023-05-14T11:00:18;5.95;;;3.63;;
7487;SDS011;3785;52.260;4.728;2023-05-14T11:03:40;6.10;;;3.78;;
7487;SDS011;3785;52.260;4.728;2023-05-14T11:07:05;8.55;;;4.13;;
7487;SDS011;3785;52.260;4.728;2023-05-14T11:10:25;5.85;;;3.35;;
7487;SDS011;3785;52.260;4.728;2023-05-14T11:13:49;5.72;;;3.13;;
7487;SDS011;3785;52.260;4.728;2023-05-14T11:17:09;5.90;;;3.53;;
7487;SDS011;3785;52.260;4.728;2023-05-14T11:20:30;4.50;;;2.75;;
7487;SDS011;3785;52.260;4.728;2023-05-14T11:23:53;3.83;;;3.28;;
7487;SDS011;3785;52.260;4.728;2023-05-14T11:27:14;4.40;;;2.88;;
7487;SDS011;3785;52.260;4.728;2023-05-14T11:30:39;5.22;;;2.65;;
7487;SDS011;3785;52.260;4.728;2023-05-14T11:34:00;5.22;;;2.83;;
7487;SDS011;3785;52.260;4.728;2023-05-14T11:37:22;5.72;;;2.97;;
7487;SDS011;3785;52.260;4.728;2023-05-14T11:40:56;5.70;;;2.80;;
7487;SDS011;3785;52.260;4.728;2023-05-14T11:44:17;4.97;;;3.00;;
7487;SDS011;3785;52.260;4.728;2023-05-14T11:47:39;7.28;;;3.15;;
7487;SDS011;3785;52.260;4.728;2023-05-14T11:51:00;3.38;;;2.70;;
7487;SDS011;3785;52.260;4.728;2023-05-14T11:54:21;5.85;;;2.92;;
7487;SDS011;3785;52.260;4.728;2023-05-14T11:57:41;5.50;;;2.95;;
7487;SDS011;3785;52.260;4.728;2023-05-14T12:01:02;4.45;;;2.80;;
7487;SDS011;3785;52.260;4.728;2023-05-14T12:04:22;4.82;;;2.70;;
7487;SDS011;3785;52.260;4.728;2023-05-14T12:07:43;2.70;;;2.30;;
7487;SDS011;3785;52.260;4.728;2023-05-14T12:11:05;4.55;;;2.40;;
7487;SDS011;3785;52.260;4.728;2023-05-14T12:14:25;4.82;;;2.63;;
7487;SDS011;3785;52.260;4.728;2023-05-14T12:17:49;5.82;;;2.03;;
7487;SDS011;3785;52.260;4.728;2023-05-14T12:21:12;6.55;;;2.42;;
7487;SDS011;3785;52.260;4.728;2023-05-14T12:24:33;3.95;;;2.28;;
7487;SDS011;3785;52.260;4.728;2023-05-14T12:27:54;3.20;;;1.95;;
7487;SDS011;3785;52.260;4.728;2023-05-14T12:31:14;3.70;;;1.95;;
7487;SDS011;3785;52.260;4.728;2023-05-14T12:34:35;3.45;;;2.03;;
7487;SDS011;3785;52.260;4.728;2023-05-14T12:37:56;4.07;;;2.20;;
7487;SDS011;3785;52.260;4.728;2023-05-14T12:41:17;3.78;;;1.95;;
7487;SDS011;3785;52.260;4.728;2023-05-14T12:44:37;3.83;;;2.20;;
7487;SDS011;3785;52.260;4.728;2023-05-14T12:47:58;4.35;;;2.30;;
7487;SDS011;3785;52.260;4.728;2023-05-14T12:51:18;4.03;;;2.45;;
7487;SDS011;3785;52.260;4.728;2023-05-14T12:54:39;4.72;;;2.30;;
7487;SDS011;3785;52.260;4.728;2023-05-14T12:58:02;4.15;;;2.15;;
7487;SDS011;3785;52.260;4.728;2023-05-14T13:01:23;3.45;;;2.30;;
7487;SDS011;3785;52.260;4.728;2023-05-14T13:04:44;5.63;;;2.50;;
7487;SDS011;3785;52.260;4.728;2023-05-14T13:08:04;3.13;;;2.05;;
7487;SDS011;3785;52.260;4.728;2023-05-14T13:11:25;5.03;;;2.22;;
7487;SDS011;3785;52.260;4.728;2023-05-14T13:14:48;3.08;;;2.08;;
7487;SDS011;3785;52.260;4.728;2023-05-14T13:18:09;3.38;;;2.35;;
7487;SDS011;3785;52.260;4.728;2023-05-14T13:21:29;3.80;;;2.35;;
7487;SDS011;3785;52.260;4.728;2023-05-14T13:24:50;3.58;;;2.33;;
7487;SDS011;3785;52.260;4.728;2023-05-14T13:28:11;5.72;;;2.60;;
7487;SDS011;3785;52.260;4.728;2023-05-14T13:31:31;4.35;;;2.35;;
7487;SDS011;3785;52.260;4.728;2023-05-14T13:34:52;3.80;;;1.98;;
7487;SDS011;3785;52.260;4.728;2023-05-14T13:38:12;6.47;;;2.30;;
7487;SDS011;3785;52.260;4.728;2023-05-14T13:41:33;5.35;;;2.65;;
7487;SDS011;3785;52.260;4.728;2023-05-14T13:44:57;6.50;;;3.08;;
7487;SDS011;3785;52.260;4.728;2023-05-14T13:48:18;5.03;;;3.10;;
7487;SDS011;3785;52.260;4.728;2023-05-14T13:51:38;5.85;;;3.25;;
7487;SDS011;3785;52.260;4.728;2023-05-14T13:54:59;6.50;;;3.83;;
7487;SDS011;3785;52.260;4.728;2023-05-14T13:58:19;8.90;;;3.72;;
7487;SDS011;3785;52.260;4.728;2023-05-14T14:01:40;8.02;;;4.10;;
7487;SDS011;3785;52.260;4.728;2023-05-14T14:05:02;5.95;;;3.95;;
7487;SDS011;3785;52.260;4.728;2023-05-14T14:08:22;5.43;;;3.60;;
7487;SDS011;3785;52.260;4.728;2023-05-14T14:11:43;8.27;;;4.20;;
7487;SDS011;3785;52.260;4.728;2023-05-14T14:15:04;7.38;;;3.63;;
7487;SDS011;3785;52.260;4.728;2023-05-14T14:18:25;7.80;;;3.38;;
7487;SDS011;3785;52.260;4.728;2023-05-14T14:21:46;8.40;;;3.17;;
7487;SDS011;3785;52.260;4.728;2023-05-14T14:25:06;6.45;;;3.17;;
7487;SDS011;3785;52.260;4.728;2023-05-14T14:28:28;5.95;;;2.90;;
7487;SDS011;3785;52.260;4.728;2023-05-14T14:31:48;8.50;;;3.00;;
7487;SDS011;3785;52.260;4.728;2023-05-14T14:35:09;5.55;;;2.58;;
7487;SDS011;3785;52.260;4.728;2023-05-14T14:38:31;5.57;;;2.40;;
7487;SDS011;3785;52.260;4.728;2023-05-14T14:41:51;5.38;;;2.60;;
7487;SDS011;3785;52.260;4.728;2023-05-14T14:45:12;4.30;;;2.70;;
7487;SDS011;3785;52.260;4.728;2023-05-14T14:48:33;4.65;;;2.53;;
7487;SDS011;3785;52.260;4.728;2023-05-14T14:51:57;4.53;;;2.30;;
7487;SDS011;3785;52.260;4.728;2023-05-14T14:55:18;5.93;;;2.70;;
7487;SDS011;3785;52.260;4.728;2023-05-14T14:58:38;6.53;;;2.15;;
7487;SDS011;3785;52.260;4.728;2023-05-14T15:01:59;4.22;;;2.22;;
7487;SDS011;3785;52.260;4.728;2023-05-14T15:05:19;5.38;;;2.53;;
7487;SDS011;3785;52.260;4.728;2023-05-14T15:08:40;5.78;;;2.33;;
7487;SDS011;3785;52.260;4.728;2023-05-14T15:12:01;4.65;;;2.38;;
7487;SDS011;3785;52.260;4.728;2023-05-14T15:15:21;4.18;;;2.20;;
7487;SDS011;3785;52.260;4.728;2023-05-14T15:18:42;4.03;;;2.60;;
7487;SDS011;3785;52.260;4.728;2023-05-14T15:22:03;5.18;;;2.30;;
7487;SDS011;3785;52.260;4.728;2023-05-14T15:25:24;4.22;;;2.60;;
7487;SDS011;3785;52.260;4.728;2023-05-14T15:28:45;7.45;;;2.83;;
7487;SDS011;3785;52.260;4.728;2023-05-14T15:32:06;5.00;;;2.50;;
7487;SDS011;3785;52.260;4.728;2023-05-14T15:35:26;5.03;;;2.90;;
7487;SDS011;3785;52.260;4.728;2023-05-14T15:38:47;6.80;;;2.97;;
7487;SDS011;3785;52.260;4.728;2023-05-14T15:42:07;5.13;;;3.00;;
7487;SDS011;3785;52.260;4.728;2023-05-14T15:45:28;4.90;;;2.60;;
7487;SDS011;3785;52.260;4.728;2023-05-14T15:48:48;5.13;;;2.90;;
7487;SDS011;3785;52.260;4.728;2023-05-14T15:52:09;4.55;;;2.58;;
7487;SDS011;3785;52.260;4.728;2023-05-14T15:55:30;4.60;;;2.65;;
7487;SDS011;3785;52.260;4.728;2023-05-14T15:58:50;6.03;;;2.55;;
7487;SDS011;3785;52.260;4.728;2023-05-14T16:02:11;4.72;;;2.42;;
7487;SDS011;3785;52.260;4.728;2023-05-14T16:05:32;3.40;;;2.50;;
7487;SDS011;3785;52.260;4.728;2023-05-14T16:08:53;6.03;;;2.58;;
7487;SDS011;3785;52.260;4.728;2023-05-14T16:12:15;4.35;;;2.45;;
7487;SDS011;3785;52.260;4.728;2023-05-14T16:15:35;5.53;;;2.40;;
7487;SDS011;3785;52.260;4.728;2023-05-14T16:18:56;4.70;;;2.50;;
7487;SDS011;3785;52.260;4.728;2023-05-14T16:22:16;7.38;;;2.85;;
7487;SDS011;3785;52.260;4.728;2023-05-14T16:25:37;3.40;;;2.50;;
7487;SDS011;3785;52.260;4.728;2023-05-14T16:28:57;4.32;;;2.80;;
7487;SDS011;3785;52.260;4.728;2023-05-14T16:32:18;6.05;;;2.70;;
7487;SDS011;3785;52.260;4.728;2023-05-14T16:35:39;5.38;;;2.88;;
7487;SDS011;3785;52.260;4.728;2023-05-14T16:38:59;5.93;;;3.00;;
7487;SDS011;3785;52.260;4.728;2023-05-14T16:42:20;4.90;;;2.90;;
7487;SDS011;3785;52.260;4.728;2023-05-14T16:45:40;4.30;;;2.45;;
7487;SDS011;3785;52.260;4.728;2023-05-14T16:49:01;3.15;;;2.50;;
7487;SDS011;3785;52.260;4.728;2023-05-14T16:52:21;2.72;;;2.05;;
7487;SDS011;3785;52.260;4.728;2023-05-14T16:55:42;5.03;;;2.58;;
7487;SDS011;3785;52.260;4.728;2023-05-14T16:59:03;5.07;;;3.30;;
7487;SDS011;3785;52.260;4.728;2023-05-14T17:02:23;4.63;;;2.80;;
7487;SDS011;3785;52.260;4.728;2023-05-14T17:05:44;4.47;;;2.53;;
7487;SDS011;3785;52.260;4.728;2023-05-14T17:09:05;5.57;;;2.95;;
7487;SDS011;3785;52.260;4.728;2023-05-14T17:12:25;5.60;;;2.60;;
7487;SDS011;3785;52.260;4.728;2023-05-14T17:15:46;5.22;;;2.70;;
7487;SDS011;3785;52.260;4.728;2023-05-14T17:19:07;5.32;;;2.47;;
7487;SDS011;3785;52.260;4.728;2023-05-14T17:22:27;5.15;;;2.45;;
7487;SDS011;3785;52.260;4.728;2023-05-14T17:25:48;4.32;;;2.75;;
7487;SDS011;3785;52.260;4.728;2023-05-14T17:29:09;4.82;;;2.95;;
7487;SDS011;3785;52.260;4.728;2023-05-14T17:32:29;6.45;;;3.25;;
7487;SDS011;3785;52.260;4.728;2023-05-14T17:35:50;3.97;;;2.90;;
7487;SDS011;3785;52.260;4.728;2023-05-14T17:39:11;6.40;;;3.22;;
7487;SDS011;3785;52.260;4.728;2023-05-14T17:42:31;5.25;;;3.05;;
7487;SDS011;3785;52.260;4.728;2023-05-14T17:45:52;6.32;;;3.55;;
7487;SDS011;3785;52.260;4.728;2023-05-14T17:49:12;5.55;;;3.50;;
7487;SDS011;3785;52.260;4.728;2023-05-14T17:52:33;8.00;;;3.75;;
7487;SDS011;3785;52.260;4.728;2023-05-14T17:55:53;6.28;;;3.40;;
7487;SDS011;3785;52.260;4.728;2023-05-14T17:59:14;7.50;;;3.65;;
7487;SDS011;3785;52.260;4.728;2023-05-14T18:02:34;7.05;;;3.53;;
7487;SDS011;3785;52.260;4.728;2023-05-14T18:05:55;6.63;;;3.63;;
7487;SDS011;3785;52.260;4.728;2023-05-14T18:09:15;7.78;;;4.35;;
7487;SDS011;3785;52.260;4.728;2023-05-14T18:12:36;7.38;;;4.07;;
7487;SDS011;3785;52.260;4.728;2023-05-14T18:15:57;6.93;;;3.78;;
7487;SDS011;3785;52.260;4.728;2023-05-14T18:19:17;9.52;;;4.20;;
7487;SDS011;3785;52.260;4.728;2023-05-14T18:22:38;6.50;;;4.15;;
7487;SDS011;3785;52.260;4.728;2023-05-14T18:25:58;7.03;;;4.32;;
7487;SDS011;3785;52.260;4.728;2023-05-14T18:29:20;7.65;;;4.38;;
7487;SDS011;3785;52.260;4.728;2023-05-14T18:32:41;5.93;;;4.00;;
7487;SDS011;3785;52.260;4.728;2023-05-14T18:36:02;7.55;;;4.20;;
7487;SDS011;3785;52.260;4.728;2023-05-14T18:39:23;4.57;;;3.97;;
7487;SDS011;3785;52.260;4.728;2023-05-14T18:42:44;6.78;;;3.67;;
7487;SDS011;3785;52.260;4.728;2023-05-14T18:46:04;7.03;;;4.60;;
7487;SDS011;3785;52.260;4.728;2023-05-14T18:49:25;5.82;;;3.58;;
7487;SDS011;3785;52.260;4.728;2023-05-14T18:52:45;7.57;;;4.05;;
7487;SDS011;3785;52.260;4.728;2023-05-14T18:56:06;5.18;;;3.97;;
7487;SDS011;3785;52.260;4.728;2023-05-14T18:59:28;5.28;;;3.75;;
7487;SDS011;3785;52.260;4.728;2023-05-14T19:02:48;6.82;;;5.13;;
7487;SDS011;3785;52.260;4.728;2023-05-14T19:06:09;10.32;;;5.18;;
7487;SDS011;3785;52.260;4.728;2023-05-14T19:09:30;6.18;;;5.32;;
7487;SDS011;3785;52.260;4.728;2023-05-14T19:12:50;10.32;;;7.43;;
7487;SDS011;3785;52.260;4.728;2023-05-14T19:16:11;13.32;;;9.55;;
7487;SDS011;3785;52.260;4.728;2023-05-14T19:19:32;11.93;;;8.82;;
7487;SDS011;3785;52.260;4.728;2023-05-14T19:22:52;13.45;;;9.02;;
7487;SDS011;3785;52.260;4.728;2023-05-14T19:26:13;10.77;;;8.52;;
7487;SDS011;3785;52.260;4.728;2023-05-14T19:29:34;8.32;;;6.90;;
7487;SDS011;3785;52.260;4.728;2023-05-14T19:32:55;11.75;;;6.90;;
7487;SDS011;3785;52.260;4.728;2023-05-14T19:36:16;11.50;;;6.72;;
7487;SDS011;3785;52.260;4.728;2023-05-14T19:39:36;7.65;;;5.70;;
7487;SDS011;3785;52.260;4.728;2023-05-14T19:42:57;8.95;;;5.75;;
7487;SDS011;3785;52.260;4.728;2023-05-14T19:46:17;7.28;;;5.05;;
7487;SDS011;3785;52.260;4.728;2023-05-14T19:49:38;7.45;;;4.90;;
7487;SDS011;3785;52.260;4.728;2023-05-14T19:52:59;6.13;;;4.82;;
7487;SDS011;3785;52.260;4.728;2023-05-14T19:56:20;6.78;;;5.32;;
7487;SDS011;3785;52.260;4.728;2023-05-14T19:59:44;8.00;;;4.88;;
7487;SDS011;3785;52.260;4.728;2023-05-14T20:03:05;7.25;;;4.70;;
7487;SDS011;3785;52.260;4.728;2023-05-14T20:06:25;6.07;;;4.50;;
7487;SDS011;3785;52.260;4.728;2023-05-14T20:09:46;7.90;;;4.75;;
7487;SDS011;3785;52.260;4.728;2023-05-14T20:13:06;6.03;;;4.38;;
7487;SDS011;3785;52.260;4.728;2023-05-14T20:16:27;6.63;;;4.70;;
7487;SDS011;3785;52.260;4.728;2023-05-14T20:19:48;9.10;;;5.53;;
7487;SDS011;3785;52.260;4.728;2023-05-14T20:23:09;9.98;;;4.88;;
7487;SDS011;3785;52.260;4.728;2023-05-14T20:26:29;7.03;;;4.82;;
7487;SDS011;3785;52.260;4.728;2023-05-14T20:29:50;8.75;;;5.38;;
7487;SDS011;3785;52.260;4.728;2023-05-14T20:33:11;8.02;;;5.70;;
7487;SDS011;3785;52.260;4.728;2023-05-14T20:36:32;7.78;;;5.15;;
7487;SDS011;3785;52.260;4.728;2023-05-14T20:39:53;7.25;;;5.47;;
7487;SDS011;3785;52.260;4.728;2023-05-14T20:43:17;10.05;;;5.65;;
7487;SDS011;3785;52.260;4.728;2023-05-14T20:46:38;9.88;;;6.03;;
7487;SDS011;3785;52.260;4.728;2023-05-14T20:49:59;8.48;;;5.82;;